Time;durP1;ratioP1;P1;durP2;ratioP2;P2;SDS_P1;SDS_P2;PMS_P1;PMS_P2;Temp;Humidity;BMP_temperature;BMP_pressure;BME280_temperature;BME280_humidity;BME280_pressure;Samples;Min_cycle;Max_cycle;Signal;HPM_P1;HPM_P2
2022/01/27 00:02:51;;;;;;;29.53;13.53;;;;;;;2.61;63.75;100700.66;5021046;28;20096;-72
2022/01/27 00:07:33;;;;;;;29.43;13.73;;;;;;;2.27;65.46;100704.34;5015473;28;20026;-71
2022/01/27 00:12:43;;;;;;;30.48;14.07;;;;;;;2.49;64.40;100696.97;5022687;28;20215;-72
2022/01/27 00:15:12;;;;;;;31.37;14.53;;;;;;;2.47;64.70;100696.22;5020855;28;20034;-72
2022/01/27 00:17:43;;;;;;;31.53;14.63;;;;;;;2.45;65.02;100716.38;5005618;28;20044;-72
2022/01/27 00:20:10;;;;;;;32.73;14.70;;;;;;;2.36;65.41;100709.91;5017890;28;20172;-72
2022/01/27 00:22:35;;;;;;;34.03;15.00;;;;;;;2.35;64.84;100716.06;5022317;28;20022;-72
2022/01/27 00:25:05;;;;;;;32.30;13.63;;;;;;;2.41;64.81;100713.09;5019906;28;20202;-72
2022/01/27 00:27:31;;;;;;;31.80;14.10;;;;;;;2.26;65.71;100713.97;5015638;28;20316;-72
2022/01/27 00:29:56;;;;;;;36.77;15.67;;;;;;;2.46;64.81;100700.59;5022603;28;20064;-72
2022/01/27 00:32:22;;;;;;;42.03;17.43;;;;;;;2.45;64.66;100696.31;5017392;28;20097;-72
2022/01/27 00:34:47;;;;;;;29.03;14.83;;;;;;;2.24;65.42;100695.75;5005098;28;20336;-72
2022/01/27 00:37:13;;;;;;;31.47;14.73;;;;;;;2.24;65.71;100698.38;5020290;28;20258;-71
2022/01/27 00:39:38;;;;;;;31.17;14.07;;;;;;;2.27;66.01;100696.50;5019806;28;20034;-72
2022/01/27 00:42:04;;;;;;;32.17;15.50;;;;;;;2.28;65.68;100693.81;5019822;28;20034;-72
2022/01/27 00:44:29;;;;;;;31.83;15.13;;;;;;;2.36;65.09;100703.81;5022832;28;20026;-72
2022/01/27 00:46:55;;;;;;;29.23;14.47;;;;;;;2.24;65.67;100692.28;5014573;28;20228;-72
2022/01/27 00:49:20;;;;;;;31.63;15.07;;;;;;;2.11;65.97;100696.53;5011643;28;20866;-71
2022/01/27 00:51:47;;;;;;;35.53;16.30;;;;;;;2.18;65.99;100700.47;5014188;28;20029;-72
2022/01/27 00:54:24;;;;;;;39.03;16.30;;;;;;;2.13;65.97;100692.91;5015770;28;20065;-72
2022/01/27 01:04:33;;;;;;;40.57;18.30;;;;;;;2.29;65.82;100692.88;5022001;28;20275;-72
2022/01/27 01:06:58;;;;;;;36.70;15.80;;;;;;;2.22;65.74;100688.94;5015669;28;20029;-71
2022/01/27 01:15:05;;;;;;;34.60;16.20;;;;;;;2.65;64.23;100695.16;5019564;28;20033;-72
2022/01/27 01:17:50;;;;;;;33.73;15.47;;;;;;;3.03;62.35;100692.91;5019078;28;20030;-71
2022/01/27 01:20:37;;;;;;;32.67;15.87;;;;;;;2.96;62.45;100675.06;5014500;28;20159;-71
2022/01/27 01:33:42;;;;;;;27.40;13.77;;;;;;;3.02;62.32;100680.78;5019211;28;20030;-72
2022/01/27 01:36:26;;;;;;;29.33;14.73;;;;;;;3.07;62.59;100675.25;5021138;28;20503;-72
2022/01/27 01:38:51;;;;;;;30.70;14.48;;;;;;;3.00;63.22;100673.94;5019939;28;20157;-72
2022/01/27 01:41:17;;;;;;;30.20;14.57;;;;;;;3.02;63.04;100666.84;5013243;28;20225;-72
2022/01/27 01:43:42;;;;;;;30.83;14.40;;;;;;;3.04;63.40;100668.44;5011757;28;20224;-71
2022/01/27 01:46:07;;;;;;;31.83;14.37;;;;;;;3.07;63.23;100657.78;5016544;28;20267;-71
2022/01/27 01:48:33;;;;;;;29.43;14.93;;;;;;;3.13;63.57;100674.94;5013837;28;20041;-72
2022/01/27 01:51:01;;;;;;;28.33;14.07;;;;;;;3.12;63.67;100667.97;5021216;28;20216;-72
2022/01/27 01:53:27;;;;;;;26.07;13.40;;;;;;;2.95;64.03;100652.44;5018629;28;20038;-72
2022/01/27 01:55:52;;;;;;;25.03;12.53;;;;;;;2.96;64.69;100661.97;5010885;28;20080;-71
2022/01/27 01:58:18;;;;;;;31.17;13.53;;;;;;;2.97;64.79;100661.03;5018752;28;20060;-72
2022/01/27 02:00:43;;;;;;;27.47;13.40;;;;;;;2.76;65.72;100656.16;5021015;28;20044;-72
2022/01/27 02:03:09;;;;;;;26.77;12.87;;;;;;;2.76;65.47;100650.94;5013412;28;20312;-72
2022/01/27 02:05:40;;;;;;;26.43;13.10;;;;;;;2.74;65.88;100652.78;5019133;28;20306;-71
2022/01/27 02:19:21;;;;;;;28.40;13.17;;;;;;;2.68;66.90;100657.53;5012472;28;20071;-72
2022/01/27 02:21:56;;;;;;;26.93;12.93;;;;;;;2.62;67.08;100655.28;5001180;28;20038;-72
2022/01/27 02:24:23;;;;;;;;;;;;;;;2.67;66.27;100656.69;5011319;28;20212;-72
2022/01/27 02:26:49;;;;;;;28.00;13.00;;;;;;;2.66;66.27;100649.78;5001475;28;19933;-72
2022/01/27 02:29:19;;;;;;;26.97;12.73;;;;;;;2.50;66.83;100656.84;5020726;28;20041;-72
2022/01/27 02:31:46;;;;;;;29.23;13.10;;;;;;;2.39;67.79;100657.44;5014066;28;20030;-72
2022/01/27 02:34:12;;;;;;;50.17;19.23;;;;;;;2.54;67.42;100650.50;5009420;28;20232;-72
2022/01/27 02:36:38;;;;;;;43.13;16.27;;;;;;;2.60;67.55;100650.13;4999508;28;20031;-71
2022/01/27 02:39:06;;;;;;;31.50;14.37;;;;;;;2.61;66.73;100648.38;5002752;28;20260;-72
2022/01/27 02:41:40;;;;;;;27.30;13.43;;;;;;;2.48;67.26;100649.06;5002739;28;20034;-72
2022/01/27 02:44:06;;;;;;;29.43;13.50;;;;;;;2.55;67.10;100657.41;5002737;28;20264;-72
2022/01/27 02:46:39;;;;;;;32.27;14.33;;;;;;;2.60;66.91;100642.28;5002747;28;20077;-72
2022/01/27 02:49:05;;;;;;;30.60;13.77;;;;;;;2.56;67.31;100646.84;5006248;28;20355;-72
2022/01/27 02:51:30;;;;;;;37.50;14.80;;;;;;;2.83;66.54;100649.63;5006292;28;20066;-72
2022/01/27 02:53:57;;;;;;;40.07;14.90;;;;;;;2.69;66.33;100635.69;5006597;28;20034;-72
2022/01/27 02:56:22;;;;;;;30.43;15.00;;;;;;;2.83;66.33;100657.47;5006377;28;20143;-72
2022/01/27 02:58:48;;;;;;;30.37;14.53;;;;;;;2.69;66.73;100648.75;5006146;28;20100;-72
2022/01/27 03:01:18;;;;;;;29.30;13.50;;;;;;;2.70;66.51;100653.06;5006284;28;20252;-72
2022/01/27 03:03:43;;;;;;;33.30;14.40;;;;;;;3.02;65.50;100654.59;5006579;28;20045;-72
2022/01/27 03:06:09;;;;;;;29.63;14.50;;;;;;;3.12;64.80;100650.53;5005991;28;20093;-72
2022/01/27 03:08:34;;;;;;;37.50;15.77;;;;;;;3.06;65.24;100656.09;4999893;28;20098;-72
2022/01/27 03:11:06;;;;;;;33.10;13.83;;;;;;;3.07;65.14;100651.72;5005969;28;20231;-71
2022/01/27 03:13:32;;;;;;;30.30;13.70;;;;;;;3.21;64.50;100643.91;5006074;28;20032;-72
2022/01/27 03:15:57;;;;;;;31.17;14.37;;;;;;;3.33;64.30;100650.16;5006068;28;20390;-72
2022/01/27 03:18:23;;;;;;;30.67;13.83;;;;;;;3.25;64.41;100653.25;5004664;28;20034;-72
2022/01/27 03:20:48;;;;;;;29.47;13.30;;;;;;;3.38;64.13;100635.03;5005827;28;20072;-72
2022/01/27 03:23:14;;;;;;;34.53;13.63;;;;;;;3.53;63.24;100637.53;5007819;28;20208;-72
2022/01/27 03:25:40;;;;;;;33.10;14.80;;;;;;;3.28;63.63;100649.59;5004782;28;20035;-72
2022/01/27 03:28:08;;;;;;;30.27;14.20;;;;;;;3.31;64.21;100646.81;5004246;28;20036;-72
2022/01/27 03:30:33;;;;;;;37.00;15.33;;;;;;;3.39;63.61;100631.47;5018208;28;20037;-72
2022/01/27 03:32:59;;;;;;;28.13;13.13;;;;;;;3.26;64.17;100638.38;5016225;28;20385;-73
2022/01/27 03:35:24;;;;;;;32.60;13.87;;;;;;;3.43;63.61;100632.97;5020209;28;20350;-72
2022/01/27 03:37:50;;;;;;;30.27;13.57;;;;;;;3.59;63.47;100636.31;5019756;28;20034;-72
2022/01/27 03:40:15;;;;;;;28.23;13.10;;;;;;;3.70;62.51;100639.09;5018413;28;20034;-71
2022/01/27 03:42:50;;;;;;;26.83;13.07;;;;;;;3.71;62.23;100629.44;5023513;28;20041;-72
2022/01/27 03:45:16;;;;;;;28.13;13.67;;;;;;;3.75;62.37;100641.41;5019859;28;20240;-72
2022/01/27 03:47:41;;;;;;;27.43;13.33;;;;;;;3.84;61.64;100648.69;5005227;28;20042;-71
2022/01/27 03:50:07;;;;;;;29.07;13.50;;;;;;;3.69;61.61;100652.28;5003699;28;20058;-71
2022/01/27 03:52:33;;;;;;;27.80;12.70;;;;;;;3.36;62.82;100663.91;5018149;28;21647;-72
2022/01/27 03:54:58;;;;;;;27.73;13.23;;;;;;;3.09;64.08;100663.78;5018017;28;20040;-72
2022/01/27 03:57:24;;;;;;;27.53;13.23;;;;;;;3.18;64.31;100665.03;5018051;28;20037;-72
2022/01/27 03:59:49;;;;;;;28.03;12.73;;;;;;;3.07;64.60;100670.03;5015204;28;20239;-71
2022/01/27 04:02:16;;;;;;;29.33;13.30;;;;;;;2.88;65.10;100668.50;5017907;28;20034;-72
2022/01/27 04:04:41;;;;;;;25.20;11.97;;;;;;;3.06;64.97;100669.19;5016069;28;20053;-72
2022/01/27 04:07:07;;;;;;;28.37;12.77;;;;;;;3.03;64.69;100668.53;5016137;28;20120;-72
2022/01/27 04:09:32;;;;;;;28.43;11.90;;;;;;;2.91;65.21;100664.03;5016850;28;20042;-72
2022/01/27 04:11:58;;;;;;;24.20;11.33;;;;;;;2.94;65.70;100683.00;5015259;28;20335;-72
2022/01/27 04:14:23;;;;;;;23.03;10.80;;;;;;;3.05;65.37;100670.13;5016629;28;20091;-72
2022/01/27 04:16:49;;;;;;;26.10;10.80;;;;;;;3.01;65.33;100675.63;5013553;28;20068;-72
2022/01/27 04:19:14;;;;;;;25.40;11.90;;;;;;;3.06;65.18;100669.19;5022991;28;20231;-72
2022/01/27 04:21:39;;;;;;;27.20;12.20;;;;;;;3.06;65.45;100679.66;5021109;28;20025;-72
2022/01/27 04:24:05;;;;;;;23.60;11.27;;;;;;;3.18;65.21;100683.34;5016784;28;20041;-72
2022/01/27 04:26:40;;;;;;;24.97;11.63;;;;;;;3.14;65.63;100677.47;5014838;28;20014;-72
2022/01/27 04:29:06;;;;;;;27.90;11.73;;;;;;;3.44;64.80;100681.75;5015802;28;20041;-72
2022/01/27 04:31:32;;;;;;;25.73;11.87;;;;;;;3.33;65.16;100679.81;5020621;28;20104;-72
2022/01/27 04:33:58;;;;;;;24.70;11.90;;;;;;;3.10;65.93;100669.84;5022275;28;20033;-72
2022/01/27 04:36:29;;;;;;;27.10;12.33;;;;;;;3.13;66.62;100681.00;5016759;28;20026;-72
2022/01/27 04:46:59;;;;;;;28.30;13.07;;;;;;;3.44;65.98;100702.72;5015225;28;20044;-72
2022/01/27 04:49:24;;;;;;;24.13;11.53;;;;;;;3.52;65.43;100696.06;5015623;28;20041;-72
2022/01/27 04:51:50;;;;;;;25.80;12.63;;;;;;;3.47;65.58;100697.28;5015610;28;20435;-71
2022/01/27 04:54:28;;;;;;;27.73;11.70;;;;;;;3.32;66.01;100691.22;4997300;28;20038;-72
2022/01/27 04:56:58;;;;;;;27.00;12.90;;;;;;;3.37;65.84;100702.25;5021933;28;20152;-72
2022/01/27 04:59:27;;;;;;;25.43;12.10;;;;;;;3.29;65.83;100694.00;5019914;28;20037;-71
2022/01/27 05:02:04;;;;;;;28.07;13.10;;;;;;;3.43;65.52;100698.41;4998237;28;20080;-72
2022/01/27 05:04:33;;;;;;;33.13;14.07;;;;;;;3.48;64.94;100694.56;5016508;28;20328;-72
2022/01/27 05:06:59;;;;;;;30.10;12.77;;;;;;;3.58;64.93;100691.41;5015099;28;20041;-72
2022/01/27 05:09:24;;;;;;;24.50;11.90;;;;;;;3.29;65.91;100703.63;5015137;28;20045;-72
2022/01/27 05:11:55;;;;;;;24.37;12.20;;;;;;;3.22;66.04;100708.41;5014848;28;20279;-72
2022/01/27 05:14:24;;;;;;;22.33;11.30;;;;;;;3.24;66.45;100703.06;5015148;28;20034;-72
2022/01/27 05:16:50;;;;;;;27.97;13.00;;;;;;;3.23;66.33;100714.47;5017966;28;20038;-73
2022/01/27 05:19:16;;;;;;;30.47;13.43;;;;;;;3.37;65.46;100704.88;5021770;28;20235;-72
2022/01/27 05:21:41;;;;;;;19.70;9.83;;;;;;;3.31;66.20;100705.22;5017677;28;20145;-71
2022/01/27 05:24:07;;;;;;;19.30;9.60;;;;;;;3.26;66.27;100714.28;5014048;28;20351;-71
2022/01/27 05:26:33;;;;;;;17.53;9.63;;;;;;;3.24;66.66;100714.38;5012318;28;20037;-72
2022/01/27 05:29:00;;;;;;;18.60;9.67;;;;;;;3.18;67.40;100722.59;5013561;28;20041;-72
2022/01/27 05:31:25;;;;;;;22.90;9.47;;;;;;;3.08;67.23;100710.97;5014898;28;20334;-71
2022/01/27 05:33:51;;;;;;;22.97;10.80;;;;;;;3.04;67.15;100717.31;5015646;28;20135;-71
2022/01/27 05:36:16;;;;;;;19.63;9.23;;;;;;;3.15;66.88;100714.94;5019724;28;20046;-72
2022/01/27 05:38:42;;;;;;;20.23;10.57;;;;;;;3.03;67.81;100721.69;5021076;28;20061;-72
2022/01/27 05:41:07;;;;;;;20.30;10.60;;;;;;;3.18;66.97;100717.38;4997508;28;20038;-72
2022/01/27 05:43:33;;;;;;;23.33;11.23;;;;;;;3.11;66.93;100711.63;5014775;28;20037;-72
2022/01/27 05:45:59;;;;;;;23.23;9.73;;;;;;;3.11;66.89;100705.56;5014385;28;20044;-72
2022/01/27 05:48:24;;;;;;;20.67;10.10;;;;;;;3.43;66.03;100720.19;5015298;28;20275;-72
2022/01/27 05:50:50;;;;;;;19.23;9.87;;;;;;;3.37;66.06;100725.81;5013586;28;20476;-72
2022/01/27 05:53:15;;;;;;;27.60;11.93;;;;;;;3.41;65.94;100729.91;5015092;28;20026;-72
2022/01/27 05:55:41;;;;;;;26.57;12.13;;;;;;;3.52;65.80;100722.25;5014708;28;20053;-72
2022/01/27 05:58:06;;;;;;;27.27;10.90;;;;;;;3.62;65.03;100724.31;5013593;28;20038;-72
2022/01/27 06:00:32;;;;;;;23.93;10.77;;;;;;;3.60;65.07;100732.25;4997950;28;20029;-72
2022/01/27 06:02:58;;;;;;;25.53;10.80;;;;;;;3.36;65.56;100736.38;5013749;28;20053;-71
2022/01/27 06:05:23;;;;;;;23.20;11.17;;;;;;;3.52;64.72;100724.88;5014423;28;20049;-72
2022/01/27 06:07:49;;;;;;;23.27;10.50;;;;;;;3.42;65.14;100741.22;5014950;28;20042;-72
2022/01/27 06:10:14;;;;;;;19.57;10.03;;;;;;;3.39;65.49;100738.81;5013399;28;20065;-72
2022/01/27 06:12:52;;;;;;;24.13;11.23;;;;;;;3.52;64.52;100739.75;4997999;28;20045;-72
2022/01/27 06:15:18;;;;;;;37.30;12.97;;;;;;;3.40;65.03;100743.09;5020572;28;20317;-72
2022/01/27 06:17:44;;;;;;;23.10;11.53;;;;;;;3.51;64.19;100738.06;5018991;28;20024;-72
2022/01/27 06:20:10;;;;;;;20.33;10.53;;;;;;;3.32;65.11;100740.94;5013897;28;20042;-72
2022/01/27 06:22:35;;;;;;;12.43;7.17;;;;;;;3.43;64.43;100751.63;5016283;28;20030;-72
2022/01/27 06:25:01;;;;;;;11.63;6.27;;;;;;;3.40;63.88;100753.56;5018489;28;20050;-71
2022/01/27 06:27:26;;;;;;;15.30;6.77;;;;;;;3.43;63.86;100751.63;5017467;28;20033;-72
2022/01/27 06:29:52;;;;;;;13.37;6.47;;;;;;;3.44;63.62;100755.06;5018724;28;20101;-72
2022/01/27 06:32:17;;;;;;;18.93;7.33;;;;;;;3.34;63.83;100760.03;5018111;28;20427;-72
2022/01/27 06:34:42;;;;;;;27.50;11.23;;;;;;;3.48;63.30;100748.72;5017671;28;20045;-72
2022/01/27 06:37:08;;;;;;;19.47;9.30;;;;;;;3.51;63.27;100761.63;5019200;28;20105;-73
2022/01/27 06:39:33;;;;;;;24.00;9.60;;;;;;;3.42;63.29;100752.56;5019930;28;20160;-72
2022/01/27 06:42:01;;;;;;;21.50;9.50;;;;;;;3.61;63.00;100761.91;5024490;28;20057;-72
2022/01/27 06:44:26;;;;;;;18.43;9.10;;;;;;;3.72;62.14;100759.47;5019991;28;20260;-72
2022/01/27 06:46:52;;;;;;;13.70;7.63;;;;;;;3.57;62.02;100755.19;5017625;28;20084;-72
2022/01/27 06:49:17;;;;;;;14.93;8.03;;;;;;;3.59;61.99;100762.00;5017611;28;20112;-72
2022/01/27 06:51:46;;;;;;;22.20;10.03;;;;;;;3.68;62.00;100768.47;5018210;28;20105;-72
2022/01/27 06:54:12;;;;;;;18.20;9.47;;;;;;;3.70;61.71;100767.44;5017046;28;20069;-72
2022/01/27 06:56:38;;;;;;;23.47;9.23;;;;;;;3.81;61.16;100765.00;5018042;28;20037;-72
2022/01/27 06:59:03;;;;;;;20.77;7.50;;;;;;;3.74;60.50;100771.56;5017974;28;20403;-72
2022/01/27 07:01:29;;;;;;;16.47;7.27;;;;;;;3.91;60.43;100767.06;5018530;28;20044;-72
2022/01/27 07:03:54;;;;;;;15.97;8.37;;;;;;;3.93;60.33;100773.88;5024046;28;20377;-72
2022/01/27 07:06:20;;;;;;;21.25;8.70;;;;;;;3.99;59.54;100770.88;5021904;28;20092;-72
2022/01/27 07:08:45;;;;;;;26.13;10.13;;;;;;;4.12;59.75;100776.22;5016952;28;20037;-72
2022/01/27 07:11:11;;;;;;;21.23;10.40;;;;;;;4.15;59.75;100779.47;5016432;28;20093;-72
2022/01/27 07:13:40;;;;;;;19.90;9.30;;;;;;;4.22;59.29;100755.53;5010878;28;20030;-72
2022/01/27 07:16:09;;;;;;;22.00;9.50;;;;;;;4.44;58.81;100780.28;5001873;28;20235;-72
2022/01/27 07:18:36;;;;;;;24.08;10.07;;;;;;;4.26;58.89;100770.97;5022089;28;20037;-72
2022/01/27 07:21:02;;;;;;;17.57;7.90;;;;;;;4.33;59.12;100787.16;5004325;28;20217;-72
2022/01/27 07:23:27;;;;;;;25.20;10.05;;;;;;;4.22;59.42;100789.63;5017641;28;20036;-72
2022/01/27 07:25:52;;;;;;;17.85;8.13;;;;;;;4.24;59.15;100790.34;4999996;28;20034;-72
2022/01/27 07:28:18;;;;;;;20.60;8.27;;;;;;;4.40;58.87;100784.06;5016935;28;20127;-73
2022/01/27 07:30:43;;;;;;;15.03;7.73;;;;;;;4.44;58.87;100789.94;5018075;28;20048;-71
2022/01/27 07:33:09;;;;;;;20.13;7.50;;;;;;;4.46;58.81;100786.28;5015600;28;20050;-72
2022/01/27 07:35:34;;;;;;;20.17;8.73;;;;;;;4.49;58.82;100796.56;5019364;28;20334;-72
2022/01/27 07:38:00;;;;;;;18.52;8.80;;;;;;;4.53;58.73;100791.13;5023640;28;20030;-72
2022/01/27 07:40:25;;;;;;;25.95;9.43;;;;;;;4.51;58.62;100772.88;5019570;28;20347;-72
2022/01/27 07:42:51;;;;;;;19.95;9.20;;;;;;;4.60;58.86;100790.66;5016603;28;20090;-72
2022/01/27 07:45:16;;;;;;;30.15;12.95;;;;;;;4.81;58.49;100785.78;5017903;28;20040;-72
2022/01/27 07:47:42;;;;;;;27.90;13.13;;;;;;;5.14;56.97;100790.59;5014550;28;20366;-73
2022/01/27 07:50:07;;;;;;;20.45;11.55;;;;;;;5.10;57.13;100781.25;5020648;28;20279;-72
2022/01/27 07:52:33;;;;;;;18.33;8.27;;;;;;;5.57;55.75;100796.47;5017821;28;20041;-72
2022/01/27 07:54:58;;;;;;;17.17;6.97;;;;;;;5.95;55.38;100793.03;5019011;28;20045;-71
2022/01/27 07:57:24;;;;;;;15.32;7.70;;;;;;;5.96;54.74;100798.16;5016257;28;20076;-72
2022/01/27 07:59:49;;;;;;;14.93;6.88;;;;;;;5.67;55.91;100797.53;5017764;28;20049;-72
2022/01/27 08:02:15;;;;;;;9.77;5.63;;;;;;;5.70;56.15;100794.69;5017680;28;20257;-72
2022/01/27 08:04:41;;;;;;;12.40;6.43;;;;;;;5.48;55.98;100801.50;5017356;28;20041;-72
2022/01/27 08:07:08;;;;;;;16.17;6.07;;;;;;;5.13;56.80;100779.25;5017782;28;20032;-72
2022/01/27 08:09:33;;;;;;;15.90;6.50;;;;;;;5.38;57.17;100814.41;5017100;28;20121;-72
2022/01/27 08:11:59;;;;;;;12.55;6.35;;;;;;;5.37;57.06;100818.00;5017867;28;20038;-72
2022/01/27 08:14:24;;;;;;;13.85;6.70;;;;;;;5.36;56.74;100811.06;5017412;28;20085;-72
2022/01/27 08:16:50;;;;;;;18.83;7.72;;;;;;;5.38;57.06;100810.00;5021146;28;20034;-72
2022/01/27 08:19:15;;;;;;;16.90;7.47;;;;;;;5.39;56.92;100814.31;5021605;28;20025;-72
2022/01/27 08:21:41;;;;;;;13.18;7.10;;;;;;;5.24;57.66;100809.25;5020671;28;20045;-72
2022/01/27 08:24:06;;;;;;;15.65;7.22;;;;;;;5.37;57.04;100815.38;5022138;28;20029;-72
2022/01/27 08:29:14;;;;;;;21.80;8.65;;;;;;;5.54;56.96;100812.44;5022277;28;20227;-72
2022/01/27 08:34:37;;;;;;;17.73;7.32;;;;;;;5.70;56.13;100820.13;5021621;28;20251;-73
2022/01/27 08:37:12;;;;;;;17.52;7.55;;;;;;;5.80;55.46;100809.81;5020090;28;20030;-73
2022/01/27 08:39:38;;;;;;;22.13;8.77;;;;;;;5.83;55.40;100825.38;5021102;28;20089;-72
2022/01/27 08:42:06;;;;;;;16.25;7.13;;;;;;;5.66;55.84;100798.47;5021517;28;20076;-72
2022/01/27 08:44:31;;;;;;;18.95;7.05;;;;;;;5.88;55.59;100828.53;5017777;28;20335;-72
2022/01/27 08:46:57;;;;;;;16.75;7.80;;;;;;;5.83;55.40;100828.00;5001673;28;20053;-71
2022/01/27 08:49:25;;;;;;;14.05;8.02;;;;;;;5.73;56.39;100826.00;5002275;28;20046;-71
2022/01/27 08:51:50;;;;;;;13.35;6.80;;;;;;;5.62;56.43;100823.28;5021630;28;20104;-72
2022/01/27 08:54:16;;;;;;;14.07;6.47;;;;;;;5.55;56.70;100827.25;5019146;28;20250;-72
2022/01/27 08:56:42;;;;;;;11.57;6.43;;;;;;;5.55;57.13;100826.41;5019601;28;20021;-71
2022/01/27 08:59:07;;;;;;;12.73;7.53;;;;;;;5.68;56.60;100820.22;5020423;28;20303;-71
2022/01/27 09:01:33;;;;;;;14.48;8.05;;;;;;;5.69;56.77;100828.94;5019708;28;20033;-71
2022/01/27 09:03:59;;;;;;;15.30;8.02;;;;;;;5.75;56.63;100831.16;5021771;28;20044;-72
2022/01/27 09:06:24;;;;;;;12.60;6.45;;;;;;;5.62;56.69;100818.00;5019723;28;20036;-71
2022/01/27 09:08:52;;;;;;;11.35;6.88;;;;;;;5.68;55.63;100819.38;5021243;28;20041;-71
2022/01/27 09:11:18;;;;;;;13.80;6.97;;;;;;;5.71;55.78;100816.53;5020452;28;20205;-72
2022/01/27 09:13:43;;;;;;;16.38;8.43;;;;;;;5.90;55.39;100821.41;5003317;28;20116;-71
2022/01/27 09:16:10;;;;;;;23.63;11.27;;;;;;;6.06;55.30;100827.28;5019359;28;20169;-71
2022/01/27 09:18:36;;;;;;;14.25;7.43;;;;;;;5.93;54.88;100824.66;5020608;28;20038;-71
2022/01/27 09:21:07;;;;;;;16.30;8.27;;;;;;;5.88;54.88;100805.72;5020674;28;20034;-71
2022/01/27 09:23:33;;;;;;;13.48;6.38;;;;;;;6.03;55.00;100819.63;5019216;28;20088;-71
2022/01/27 09:26:05;;;;;;;14.13;6.63;;;;;;;6.02;54.78;100817.94;5020361;28;20037;-71
2022/01/27 09:28:30;;;;;;;16.35;7.50;;;;;;;5.99;54.71;100811.09;5018517;28;20030;-71
2022/01/27 09:30:56;;;;;;;11.32;5.95;;;;;;;6.07;54.57;100821.91;5020123;28;20076;-72
2022/01/27 09:33:22;;;;;;;11.13;5.50;;;;;;;6.13;54.10;100810.13;5019796;28;20315;-72
2022/01/27 09:35:48;;;;;;;9.35;5.18;;;;;;;6.04;53.75;100809.00;5019851;28;20232;-72
2022/01/27 09:38:13;;;;;;;16.27;5.75;;;;;;;6.09;53.62;100806.03;5020226;28;20038;-71
2022/01/27 09:40:39;;;;;;;9.02;5.25;;;;;;;6.22;53.32;100800.75;5019219;28;20101;-71
2022/01/27 09:43:05;;;;;;;11.45;5.35;;;;;;;6.48;53.96;100805.03;5021019;28;20247;-71
2022/01/27 09:45:37;;;;;;;8.63;4.78;;;;;;;6.56;52.25;100804.47;5018115;28;20334;-72
2022/01/27 09:48:12;;;;;;;10.25;4.90;;;;;;;6.37;53.22;100797.91;5020893;28;20322;-72
2022/01/27 09:53:08;;;;;;;13.02;5.60;;;;;;;6.58;53.28;100792.06;5019972;28;20021;-71
2022/01/27 09:55:33;;;;;;;9.40;4.70;;;;;;;6.46;52.79;100792.94;5019300;28;20056;-71
2022/01/27 09:58:01;;;;;;;10.68;5.43;;;;;;;6.39;53.69;100782.00;5001194;28;20026;-71
2022/01/27 10:00:26;;;;;;;13.55;7.60;;;;;;;6.37;53.61;100784.75;5020406;28;20031;-71
2022/01/27 10:03:13;;;;;;;15.95;8.70;;;;;;;6.52;53.81;100779.34;5022666;28;20088;-71
2022/01/27 10:05:39;;;;;;;15.95;7.95;;;;;;;6.44;53.57;100766.75;5020711;28;20132;-71
2022/01/27 10:08:13;;;;;;;19.15;9.18;;;;;;;6.51;53.40;100770.59;5019719;28;20036;-71
2022/01/27 10:10:44;;;;;;;13.45;7.65;;;;;;;6.42;52.58;100758.13;5019223;28;20033;-72
2022/01/27 10:13:26;;;;;;;13.30;6.80;;;;;;;6.29;53.96;100752.91;5019983;28;20042;-72
2022/01/27 10:15:53;;;;;;;11.50;7.45;;;;;;;6.46;53.45;100766.63;5007736;28;20064;-71
2022/01/27 10:18:20;;;;;;;12.65;6.90;;;;;;;6.57;53.26;100756.16;5019724;28;20208;-71
2022/01/27 10:20:50;;;;;;;12.40;6.30;;;;;;;6.71;52.21;100759.47;5020070;28;20041;-71
2022/01/27 10:23:22;;;;;;;16.17;6.50;;;;;;;6.83;52.03;100764.78;5018706;28;20068;-72
2022/01/27 10:25:53;;;;;;;9.02;6.05;;;;;;;6.68;52.17;100756.22;5003501;28;20315;-73
2022/01/27 10:28:41;;;;;;;8.27;5.10;;;;;;;6.49;51.85;100759.34;5018807;28;20030;-72
2022/01/27 10:31:21;;;;;;;14.43;6.38;;;;;;;6.54;52.85;100761.66;5019987;28;20200;-71
2022/01/27 10:34:04;;;;;;;11.48;5.75;;;;;;;6.51;52.07;100756.59;5019008;28;20333;-71
2022/01/27 10:36:44;;;;;;;16.58;6.15;;;;;;;6.68;52.22;100751.78;5019117;28;20116;-72
2022/01/27 10:39:15;;;;;;;13.20;6.80;;;;;;;6.82;51.54;100750.78;5019529;28;20033;-71
2022/01/27 10:42:00;;;;;;;12.65;6.35;;;;;;;6.83;51.01;100751.63;5018881;28;20072;-71
2022/01/27 10:44:37;;;;;;;12.30;6.30;;;;;;;6.85;51.04;100736.56;5019379;28;20029;-71
2022/01/27 10:47:06;;;;;;;17.85;7.38;;;;;;;7.02;51.20;100738.75;5020978;28;20030;-72
2022/01/27 10:49:35;;;;;;;14.70;6.68;;;;;;;6.77;51.36;100725.75;5019403;28;20069;-72
2022/01/27 10:52:00;;;;;;;26.73;13.05;;;;;;;6.68;52.11;100740.44;5002794;28;20033;-71
2022/01/27 10:54:39;;;;;;;28.45;7.97;;;;;;;6.62;52.25;100740.88;5019322;28;20037;-71
2022/01/27 10:57:10;;;;;;;14.75;7.00;;;;;;;6.55;51.77;100732.59;5019881;28;20358;-71
2022/01/27 10:59:37;;;;;;;15.93;8.25;;;;;;;6.59;52.02;100733.22;5018614;28;20069;-71
2022/01/27 11:02:10;;;;;;;17.15;8.82;;;;;;;6.66;51.77;100735.28;5019556;28;20097;-71
2022/01/27 11:04:39;;;;;;;13.73;7.80;;;;;;;6.67;51.37;100728.22;5018560;28;20044;-71
2022/01/27 11:07:08;;;;;;;18.08;8.38;;;;;;;6.69;51.52;100726.31;5002677;28;20029;-71
2022/01/27 11:09:37;;;;;;;10.38;5.78;;;;;;;6.90;50.33;100722.09;5018561;28;20204;-71
2022/01/27 11:12:13;;;;;;;11.63;6.82;;;;;;;6.88;50.54;100720.53;5023643;28;20026;-71
2022/01/27 11:14:40;;;;;;;12.05;6.70;;;;;;;6.60;51.57;100711.19;5020823;28;20030;-71
2022/01/27 11:17:07;;;;;;;11.10;7.18;;;;;;;6.79;51.78;100714.16;5023472;28;20030;-71
2022/01/27 11:22:12;;;;;;;12.63;5.97;;;;;;;6.83;50.51;100710.34;5022598;28;20025;-71
2022/01/27 11:27:22;;;;;;;10.75;5.93;;;;;;;6.86;50.57;100712.75;5019841;28;20026;-71
2022/01/27 11:30:05;;;;;;;11.70;6.03;;;;;;;6.83;50.24;100714.75;5023401;28;20076;-71
2022/01/27 11:32:40;;;;;;;9.52;5.38;;;;;;;6.89;50.14;100701.97;5022131;28;20363;-71
2022/01/27 11:35:17;;;;;;;17.17;6.32;;;;;;;6.82;50.84;100713.94;5022423;28;20030;-71
2022/01/27 11:37:52;;;;;;;10.00;5.80;;;;;;;6.83;50.07;100698.97;5021546;28;20068;-71
2022/01/27 11:40:20;;;;;;;11.63;6.80;;;;;;;6.81;49.71;100704.34;5020917;28;20057;-71
2022/01/27 11:42:54;;;;;;;11.70;5.78;;;;;;;6.67;50.25;100707.16;5022893;28;20034;-71
2022/01/27 11:45:23;;;;;;;12.57;6.13;;;;;;;6.91;49.66;100702.72;5006138;28;20048;-71
2022/01/27 11:47:51;;;;;;;11.50;6.60;;;;;;;6.96;49.95;100697.94;5021517;28;20030;-71
2022/01/27 11:50:34;;;;;;;10.15;5.82;;;;;;;7.14;50.09;100700.97;5023058;28;20100;-71
2022/01/27 11:53:05;;;;;;;13.88;6.07;;;;;;;7.22;50.19;100700.38;5020833;28;20097;-71
2022/01/27 11:55:33;;;;;;;10.13;5.22;;;;;;;7.22;49.69;100689.84;5022657;28;20037;-71
2022/01/27 11:58:00;;;;;;;10.90;6.45;;;;;;;7.09;49.16;100681.19;5006139;28;20056;-71
2022/01/27 12:00:30;;;;;;;12.82;7.30;;;;;;;7.31;48.80;100676.00;5021270;28;20336;-71
2022/01/27 12:03:01;;;;;;;14.20;6.70;;;;;;;7.21;48.95;100677.63;5023210;28;20149;-71
2022/01/27 12:05:35;;;;;;;11.05;6.40;;;;;;;7.17;49.16;100673.56;5022360;28;20030;-71
2022/01/27 12:08:13;;;;;;;11.15;5.03;;;;;;;7.41;48.01;100682.22;5014899;28;20025;-71
2022/01/27 12:10:42;;;;;;;11.07;6.57;;;;;;;7.25;48.26;100681.69;5013861;28;20679;-72
2022/01/27 12:13:42;;;;;;;10.05;5.65;;;;;;;7.33;48.63;100674.09;5013149;28;20033;-71
2022/01/27 12:16:25;;;;;;;14.07;7.88;;;;;;;7.33;48.75;100671.44;5012385;28;20493;-71
2022/01/27 12:19:00;;;;;;;15.93;9.68;;;;;;;7.45;47.73;100665.22;5015355;28;20049;-71
2022/01/27 12:21:31;;;;;;;17.95;6.93;;;;;;;7.30;48.00;100664.63;4998968;28;20033;-72
2022/01/27 12:24:17;;;;;;;19.50;9.52;;;;;;;7.22;49.06;100655.59;5013999;28;20033;-72
2022/01/27 12:26:47;;;;;;;13.40;8.45;;;;;;;7.09;48.34;100662.75;5014225;28;20374;-71
2022/01/27 12:29:23;;;;;;;13.95;7.80;;;;;;;6.96;48.51;100658.44;5021052;28;20075;-71